createdAt,value
2022-07-29T00:01:19.449Z,1.20
2022-07-29T00:04:22.634Z,1.33
2022-07-29T00:07:24.923Z,1.13
2022-07-29T00:10:27.184Z,1.02
2022-07-29T00:13:32.120Z,1.27
2022-07-29T00:16:35.945Z,0.80
2022-07-29T00:19:37.869Z,1.10
2022-07-29T00:22:40.447Z,0.90
2022-07-29T00:25:42.380Z,0.85
2022-07-29T00:28:44.503Z,0.93
2022-07-29T00:31:46.637Z,0.90
2022-07-29T00:35:07.288Z,0.90
2022-07-29T00:38:09.438Z,0.80
2022-07-29T00:41:12.190Z,0.90
2022-07-29T00:44:14.542Z,0.80
2022-07-29T00:47:16.817Z,1.00
2022-07-29T00:50:19.155Z,0.90
2022-07-29T00:53:22.461Z,0.98
2022-07-29T00:56:24.483Z,1.00
2022-07-29T00:59:34.653Z,1.10
2022-07-29T01:02:37.321Z,1.10
2022-07-29T01:05:51.028Z,0.90
2022-07-29T01:08:53.990Z,1.20
2022-07-29T01:11:56.629Z,0.90
2022-07-29T01:15:00.424Z,0.90
2022-07-29T01:18:29.205Z,1.00
2022-07-29T01:21:51.090Z,0.93
2022-07-29T01:24:56.165Z,1.30
2022-07-29T01:28:01.253Z,1.25
2022-07-29T01:31:08.060Z,1.00
2022-07-29T01:34:22.569Z,0.90
2022-07-29T01:37:30.882Z,1.08
2022-07-29T01:40:41.956Z,0.90
2022-07-29T01:43:54.581Z,1.02
2022-07-29T01:47:01.433Z,1.02
2022-07-29T01:50:09.042Z,1.67
2022-07-29T01:53:13.328Z,1.25
2022-07-29T01:56:19.713Z,1.10
2022-07-29T01:59:22.461Z,1.52
2022-07-29T02:02:27.476Z,1.50
2022-07-29T02:05:31.644Z,1.40
2022-07-29T02:08:35.523Z,1.02
2022-07-29T02:11:39.318Z,1.58
2022-07-29T02:14:46.854Z,1.30
2022-07-29T02:17:57.672Z,1.15
2022-07-29T02:21:00.895Z,1.30
2022-07-29T02:24:05.509Z,1.23
2022-07-29T02:27:09.172Z,1.48
2022-07-29T02:30:13.416Z,1.50
2022-07-29T02:33:18.513Z,1.27
2022-07-29T02:36:22.889Z,1.25
2022-07-29T02:42:29.777Z,1.73
2022-07-29T02:45:33.471Z,1.30
2022-07-29T02:48:39.884Z,1.33
2022-07-29T02:51:50.581Z,1.00
2022-07-29T02:54:54.960Z,1.20
2022-07-29T03:01:21.330Z,0.93
2022-07-29T03:04:27.341Z,1.20
2022-07-29T03:07:30.376Z,1.30
2022-07-29T03:10:33.006Z,1.20
2022-07-29T03:13:36.728Z,0.93
2022-07-29T03:16:41.235Z,1.27
2022-07-29T03:22:49.116Z,1.10
2022-07-29T03:25:51.650Z,1.08
2022-07-29T03:28:54.489Z,1.23
2022-07-29T03:31:57.842Z,1.25
2022-07-29T03:35:00.689Z,1.30
2022-07-29T03:38:02.767Z,1.20
2022-07-29T03:41:10.088Z,1.23
2022-07-29T03:44:13.659Z,1.30
2022-07-29T03:47:18.667Z,1.25
2022-07-29T03:50:23.967Z,1.23
2022-07-29T03:53:26.558Z,1.20
2022-07-29T03:56:29.979Z,1.27
2022-07-29T03:59:35.070Z,1.50
2022-07-29T04:02:39.322Z,1.30
2022-07-29T04:05:42.359Z,1.20
2022-07-29T04:08:44.275Z,1.60
2022-07-29T04:12:01.577Z,1.27
2022-07-29T04:15:06.644Z,1.23
2022-07-29T04:18:08.830Z,1.80
2022-07-29T04:21:10.817Z,2.15
2022-07-29T04:24:14.311Z,1.65
2022-07-29T04:27:16.673Z,1.27
2022-07-29T04:30:19.607Z,1.20
2022-07-29T04:33:21.520Z,1.48
2022-07-29T04:36:29.111Z,1.20
2022-07-29T04:39:31.971Z,1.55
2022-07-29T04:42:34.263Z,1.20
2022-07-29T04:45:46.311Z,1.38
2022-07-29T04:48:48.859Z,1.25
2022-07-29T04:51:50.865Z,1.40
2022-07-29T04:54:52.925Z,1.23
2022-07-29T04:57:54.977Z,1.60
2022-07-29T05:00:57.145Z,1.73
2022-07-29T05:04:00.632Z,1.35
2022-07-29T05:07:03.701Z,1.30
2022-07-29T05:10:06.223Z,1.45
2022-07-29T05:13:08.974Z,1.30
2022-07-29T05:16:11.039Z,1.58
2022-07-29T05:19:14.601Z,1.38
2022-07-29T05:22:17.119Z,1.27
2022-07-29T05:25:19.454Z,1.40
2022-07-29T05:28:21.589Z,1.38
2022-07-29T05:31:23.771Z,1.45
2022-07-29T05:34:26.250Z,1.42
2022-07-29T05:37:28.727Z,1.50
2022-07-29T05:40:31.012Z,1.75
2022-07-29T05:43:33.786Z,1.40
2022-07-29T05:46:35.800Z,1.35
2022-07-29T05:49:38.618Z,1.27
2022-07-29T05:52:40.628Z,1.20
2022-07-29T05:55:43.632Z,1.30
2022-07-29T05:58:45.713Z,1.35
2022-07-29T06:01:48.105Z,1.17
2022-07-29T06:04:50.738Z,1.17
2022-07-29T06:07:53.250Z,1.52
2022-07-29T06:10:55.336Z,1.25
2022-07-29T06:13:57.685Z,1.33
2022-07-29T06:16:59.678Z,1.10
2022-07-29T06:20:02.968Z,1.15
2022-07-29T06:23:05.731Z,1.17
2022-07-29T06:26:08.279Z,1.17
2022-07-29T06:29:14.089Z,1.00
2022-07-29T06:32:16.632Z,1.30
2022-07-29T06:35:39.043Z,3.38
2022-07-29T06:38:44.888Z,1.00
2022-07-29T06:41:51.850Z,1.38
2022-07-29T06:44:53.992Z,1.40
2022-07-29T06:47:56.017Z,1.10
2022-07-29T06:50:58.587Z,1.50
2022-07-29T06:54:03.443Z,1.20
2022-07-29T06:57:06.164Z,1.27
2022-07-29T07:00:09.081Z,1.20
2022-07-29T07:03:11.344Z,1.38
2022-07-29T07:06:15.190Z,1.33
2022-07-29T07:09:17.439Z,1.38
2022-07-29T07:12:20.108Z,1.23
2022-07-29T07:15:23.026Z,1.23
2022-07-29T07:18:41.734Z,1.50
2022-07-29T07:21:44.107Z,1.10
2022-07-29T07:24:46.017Z,1.08
2022-07-29T07:27:48.162Z,1.70
2022-07-29T07:30:50.303Z,1.25
2022-07-29T07:33:54.524Z,1.30
2022-07-29T07:36:56.774Z,1.48
2022-07-29T07:39:59.107Z,1.40
2022-07-29T07:43:01.058Z,1.20
2022-07-29T07:46:03.788Z,1.40
2022-07-29T07:49:06.019Z,1.00
2022-07-29T07:52:08.183Z,1.13
2022-07-29T07:55:10.246Z,1.20
2022-07-29T07:58:12.856Z,1.38
2022-07-29T08:01:15.014Z,1.17
2022-07-29T08:04:22.188Z,1.05
2022-07-29T08:07:27.219Z,1.30
2022-07-29T08:10:47.996Z,1.73
2022-07-29T08:13:50.270Z,1.40
2022-07-29T08:16:53.099Z,1.30
2022-07-29T08:19:56.175Z,3.17
2022-07-29T08:22:58.366Z,4.05
2022-07-29T08:26:00.343Z,2.80
2022-07-29T08:29:02.715Z,1.85
2022-07-29T08:32:05.711Z,2.78
2022-07-29T08:35:08.583Z,1.50
2022-07-29T08:38:10.991Z,1.80
2022-07-29T08:41:13.496Z,1.35
2022-07-29T08:44:30.842Z,1.40
2022-07-29T08:47:34.384Z,1.60
2022-07-29T08:50:37.877Z,1.27
2022-07-29T08:53:43.046Z,1.33
2022-07-29T08:56:49.121Z,1.40
2022-07-29T08:59:55.501Z,1.48
2022-07-29T09:02:59.878Z,1.50
2022-07-29T09:06:03.872Z,1.40
2022-07-29T09:09:06.855Z,1.38
2022-07-29T09:12:09.311Z,1.90
2022-07-29T09:15:11.793Z,1.65
2022-07-29T09:18:36.065Z,1.20
2022-07-29T09:22:03.142Z,1.20
2022-07-29T09:25:06.576Z,1.65
2022-07-29T09:28:11.287Z,1.05
2022-07-29T09:31:13.637Z,1.45
2022-07-29T09:34:17.924Z,1.40
2022-07-29T09:37:33.355Z,1.40
2022-07-29T09:40:35.542Z,1.63
2022-07-29T09:43:38.824Z,1.40
2022-07-29T09:46:43.104Z,1.45
2022-07-29T09:49:59.464Z,1.40
2022-07-29T09:53:01.467Z,1.38
2022-07-29T09:56:04.873Z,1.55
2022-07-29T09:59:08.304Z,1.50
2022-07-29T10:02:18.918Z,1.52
2022-07-29T10:05:26.710Z,1.88
2022-07-29T10:08:38.848Z,1.40
2022-07-29T10:11:49.262Z,1.70
2022-07-29T10:14:52.496Z,1.83
2022-07-29T10:17:57.167Z,1.55
2022-07-29T10:21:02.501Z,1.77
2022-07-29T10:24:05.935Z,1.48
2022-07-29T10:30:16.026Z,1.50
2022-07-29T10:33:52.892Z,1.50
2022-07-29T10:36:58.023Z,1.98
2022-07-29T10:41:03.286Z,2.17
2022-07-29T10:44:17.334Z,1.80
2022-07-29T10:47:23.035Z,1.60
2022-07-29T10:50:25.349Z,1.42
2022-07-29T10:53:48.188Z,1.90
2022-07-29T10:56:50.271Z,1.80
2022-07-29T11:00:02.173Z,2.00
2022-07-29T11:07:03.987Z,1.70
2022-07-29T11:10:15.526Z,1.70
2022-07-29T11:13:48.172Z,1.63
2022-07-29T11:17:05.931Z,1.70
2022-07-29T11:20:38.925Z,1.75
2022-07-29T11:23:44.545Z,1.63
2022-07-29T11:27:08.489Z,1.83
2022-07-29T11:30:12.977Z,1.87
2022-07-29T11:37:17.582Z,1.23
2022-07-29T11:40:21.435Z,2.10
2022-07-29T11:43:50.642Z,1.85
2022-07-29T11:46:54.290Z,1.42
2022-07-29T11:49:59.933Z,1.70
2022-07-29T11:53:10.726Z,2.08
2022-07-29T11:56:17.059Z,1.73
2022-07-29T11:59:21.066Z,2.10
2022-07-29T12:02:36.468Z,1.80
2022-07-29T12:05:48.200Z,1.92
2022-07-29T12:07:01.472Z,1.60
2022-07-29T12:08:53.756Z,1.98
2022-07-29T12:12:04.979Z,1.60
2022-07-29T12:15:22.216Z,1.83
2022-07-29T12:18:25.111Z,1.55
2022-07-29T12:21:28.737Z,1.85
2022-07-29T12:24:44.913Z,2.50
2022-07-29T12:27:47.225Z,2.10
2022-07-29T12:30:51.707Z,1.67
2022-07-29T12:33:54.766Z,2.28
2022-07-29T12:36:59.526Z,2.20
2022-07-29T12:40:01.959Z,2.42
2022-07-29T12:43:14.756Z,2.27
2022-07-29T12:46:17.425Z,5.22
2022-07-29T12:49:24.229Z,2.28
2022-07-29T12:52:32.029Z,2.08
2022-07-29T12:56:07.919Z,2.33
2022-07-29T12:59:23.033Z,2.83
2022-07-29T13:02:25.869Z,2.25
2022-07-29T13:05:49.061Z,2.28
2022-07-29T13:09:03.934Z,2.15
2022-07-29T13:12:11.888Z,2.00
2022-07-29T13:15:17.297Z,2.50
2022-07-29T13:18:33.534Z,2.35
2022-07-29T13:21:36.477Z,2.20
2022-07-29T13:24:53.897Z,2.93
2022-07-29T13:27:56.733Z,1.98
2022-07-29T13:30:58.891Z,3.13
2022-07-29T13:34:01.237Z,2.72
2022-07-29T13:37:03.308Z,2.95
2022-07-29T13:40:07.438Z,2.45
2022-07-29T13:43:13.496Z,3.05
2022-07-29T13:46:15.795Z,2.35
2022-07-29T13:49:17.887Z,2.78
2022-07-29T13:52:20.598Z,2.45
2022-07-29T13:55:24.667Z,2.78
2022-07-29T13:58:27.228Z,2.30
2022-07-29T14:01:31.422Z,2.10
2022-07-29T14:04:35.074Z,2.28
2022-07-29T14:07:39.720Z,2.40
2022-07-29T14:10:41.929Z,1.80
2022-07-29T14:13:47.926Z,1.67
2022-07-29T14:16:52.484Z,1.40
2022-07-29T14:19:57.530Z,1.75
2022-07-29T14:22:59.913Z,2.30
2022-07-29T14:26:02.019Z,1.42
2022-07-29T14:29:05.512Z,1.90
2022-07-29T14:32:08.728Z,2.00
2022-07-29T14:35:11.641Z,1.85
2022-07-29T14:38:15.397Z,1.88
2022-07-29T14:41:17.707Z,2.50
2022-07-29T14:44:19.692Z,1.50
2022-07-29T14:47:22.865Z,1.60
2022-07-29T14:50:31.654Z,1.70
2022-07-29T14:53:34.737Z,2.08
2022-07-29T14:56:37.641Z,1.90
2022-07-29T14:59:48.807Z,2.00
2022-07-29T15:03:01.787Z,2.30
2022-07-29T15:06:04.780Z,2.05
2022-07-29T15:09:07.260Z,1.80
2022-07-29T15:12:11.488Z,1.90
2022-07-29T15:18:16.341Z,1.90
2022-07-29T15:21:28.224Z,1.98
2022-07-29T15:24:30.434Z,2.28
2022-07-29T15:27:32.429Z,2.10
2022-07-29T15:30:36.982Z,2.17
2022-07-29T15:33:39.348Z,1.90
2022-07-29T15:36:51.960Z,1.90
2022-07-29T15:39:59.884Z,1.90
2022-07-29T15:43:06.781Z,1.65
2022-07-29T15:46:27.513Z,2.08
2022-07-29T15:49:48.786Z,2.40
2022-07-29T15:52:51.957Z,1.95
2022-07-29T15:55:54.182Z,2.10
2022-07-29T15:58:56.642Z,1.83
2022-07-29T16:01:59.264Z,2.20
2022-07-29T16:05:01.206Z,1.75
2022-07-29T16:08:03.448Z,1.90
2022-07-29T16:11:05.499Z,1.80
2022-07-29T16:14:09.254Z,1.40
2022-07-29T16:17:14.262Z,2.47
2022-07-29T16:20:17.274Z,1.50
2022-07-29T16:23:19.217Z,1.73
2022-07-29T16:26:21.610Z,2.72
2022-07-29T16:29:23.523Z,1.88
2022-07-29T16:32:25.754Z,1.70
2022-07-29T16:35:39.119Z,1.80
2022-07-29T16:38:47.185Z,2.08
2022-07-29T16:41:49.795Z,1.70
2022-07-29T16:44:52.132Z,1.88
2022-07-29T16:48:00.235Z,2.22
2022-07-29T16:51:03.427Z,2.45
2022-07-29T16:54:05.845Z,1.95
2022-07-29T16:57:08.347Z,2.10
2022-07-29T17:00:11.119Z,1.95
2022-07-29T17:03:13.496Z,1.73
2022-07-29T17:06:15.560Z,2.13
2022-07-29T17:09:18.186Z,2.10
2022-07-29T17:12:20.142Z,1.90
2022-07-29T17:15:22.422Z,2.13
2022-07-29T17:18:24.402Z,1.55
2022-07-29T17:21:28.190Z,2.20
2022-07-29T17:24:30.913Z,1.83
2022-07-29T17:27:33.794Z,2.17
2022-07-29T17:30:36.001Z,2.10
2022-07-29T17:33:38.469Z,1.83
2022-07-29T17:36:40.736Z,2.08
2022-07-29T17:39:43.142Z,2.10
2022-07-29T17:42:45.485Z,1.77
2022-07-29T17:45:49.803Z,1.98
2022-07-29T17:48:54.817Z,2.08
2022-07-29T17:55:05.213Z,1.50
2022-07-29T17:58:10.454Z,2.08
2022-07-29T18:01:12.835Z,1.80
2022-07-29T18:04:21.011Z,1.95
2022-07-29T18:07:23.294Z,1.52
2022-07-29T18:10:25.825Z,2.00
2022-07-29T18:13:27.780Z,2.13
2022-07-29T18:16:30.074Z,2.13
2022-07-29T18:19:32.104Z,2.25
2022-07-29T18:22:35.020Z,1.65
2022-07-29T18:25:37.164Z,2.17
2022-07-29T18:28:39.773Z,1.65
2022-07-29T18:31:42.680Z,2.08
2022-07-29T18:34:45.212Z,2.28
2022-07-29T18:38:02.199Z,1.90
2022-07-29T18:41:05.641Z,3.22
2022-07-29T18:44:09.689Z,2.47
2022-07-29T18:47:12.667Z,2.08
2022-07-29T18:50:16.183Z,2.10
2022-07-29T18:53:18.387Z,2.50
2022-07-29T18:56:21.252Z,2.00
2022-07-29T18:59:23.824Z,2.03
2022-07-29T19:02:26.221Z,2.25
2022-07-29T19:05:28.719Z,2.28
2022-07-29T19:08:31.036Z,2.20
2022-07-29T19:11:33.602Z,2.20
2022-07-29T19:14:35.960Z,2.22
2022-07-29T19:17:39.417Z,3.03
2022-07-29T19:20:42.218Z,3.43
2022-07-29T19:24:00.043Z,3.13
2022-07-29T19:27:06.745Z,2.75
2022-07-29T19:30:09.737Z,2.28
2022-07-29T19:33:14.864Z,2.80
2022-07-29T19:36:17.711Z,2.50
2022-07-29T19:39:19.909Z,2.70
2022-07-29T19:42:37.826Z,2.63
2022-07-29T19:45:40.189Z,2.47
2022-07-29T19:48:42.891Z,2.97
2022-07-29T19:51:45.336Z,2.30
2022-07-29T19:54:48.949Z,2.60
2022-07-29T19:57:55.623Z,2.67
2022-07-29T20:00:58.529Z,2.65
2022-07-29T20:04:05.081Z,2.80
2022-07-29T20:07:07.709Z,2.70
2022-07-29T20:10:10.369Z,2.70
2022-07-29T20:13:13.011Z,2.75
2022-07-29T20:16:14.927Z,2.20
2022-07-29T20:19:17.852Z,2.60
2022-07-29T20:22:21.191Z,2.50
2022-07-29T20:25:24.148Z,2.57
2022-07-29T20:28:26.333Z,2.70
2022-07-29T20:31:30.717Z,2.25
2022-07-29T20:34:33.166Z,2.80
2022-07-29T20:37:55.645Z,2.70
2022-07-29T20:40:59.136Z,2.53
2022-07-29T20:44:02.133Z,3.37
2022-07-29T20:47:04.383Z,2.72
2022-07-29T20:50:07.131Z,2.63
2022-07-29T20:53:09.478Z,2.83
2022-07-29T20:56:12.838Z,2.53
2022-07-29T20:59:15.192Z,2.80
2022-07-29T21:02:17.845Z,2.67
2022-07-29T21:05:19.933Z,2.30
2022-07-29T21:08:22.789Z,2.90
2022-07-29T21:11:44.100Z,2.80
2022-07-29T21:14:48.033Z,2.88
2022-07-29T21:17:52.498Z,3.10
2022-07-29T21:23:57.665Z,3.10
2022-07-29T21:27:21.070Z,2.92
2022-07-29T21:30:23.363Z,2.30
2022-07-29T21:33:30.357Z,2.17
2022-07-29T21:36:48.872Z,2.85
2022-07-29T21:39:51.453Z,2.70
2022-07-29T21:42:54.047Z,2.75
2022-07-29T21:45:57.392Z,2.90
2022-07-29T21:48:59.438Z,2.47
2022-07-29T21:52:01.681Z,2.85
2022-07-29T21:55:04.127Z,2.50
2022-07-29T21:58:06.763Z,3.83
2022-07-29T22:01:08.841Z,3.65
2022-07-29T22:04:11.185Z,2.83
2022-07-29T22:07:13.425Z,2.95
2022-07-29T22:10:16.169Z,3.17
2022-07-29T22:13:18.159Z,2.88
2022-07-29T22:16:20.255Z,2.90
2022-07-29T22:19:22.197Z,3.33
2022-07-29T22:22:29.741Z,3.05
2022-07-29T22:25:31.778Z,3.40
2022-07-29T22:28:33.988Z,3.42
2022-07-29T22:31:36.177Z,3.10
2022-07-29T22:34:38.723Z,3.30
2022-07-29T22:45:13.822Z,3.60
2022-07-29T22:48:16.196Z,3.28
2022-07-29T22:51:18.160Z,3.80
2022-07-29T22:54:20.351Z,3.60
2022-07-29T22:57:22.333Z,3.28
2022-07-29T23:00:24.424Z,4.10
2022-07-29T23:03:26.550Z,4.18
2022-07-29T23:06:29.851Z,3.90
2022-07-29T23:09:31.740Z,4.60
2022-07-29T23:12:34.061Z,4.18
2022-07-29T23:15:36.030Z,3.90
2022-07-29T23:18:39.602Z,3.92
2022-07-29T23:21:41.616Z,4.15
2022-07-29T23:24:43.748Z,4.25
2022-07-29T23:27:45.698Z,4.53
2022-07-29T23:30:48.051Z,3.78
2022-07-29T23:33:49.973Z,4.28
2022-07-29T23:36:52.743Z,3.63
2022-07-29T23:39:54.581Z,4.38
2022-07-29T23:42:56.871Z,3.92
2022-07-29T23:45:59.064Z,3.90
2022-07-29T23:49:01.755Z,4.00
2022-07-29T23:52:03.926Z,4.07
2022-07-29T23:55:38.212Z,3.55
2022-07-29T23:58:28.465Z,4.18
